San Juan Enterprise — WDD9563 — position and weather

sailwx.info

Track history (hours):
 
Tides and Currents Weather Stations Pressure Air Temp Water Temp Dewpoint Dewpoint Depression Visibility Wind Speed Wind Dir Waves Ship Positions

San Juan Enterprise

Owner: SAN JUAN MARINE FREIGHT CO LLC, ANACORTES, WA. More information available from US FCC via Universal Licensing System and Coast Guard Vessel Documentation Center.

Last reported at 2014-Oct-25 03:28 UTC. Time now 2014-Oct-25 04:18 UTC.
Position N 48°31' W 122°36'.

Length 30 m.

MMSI: 367313160.

Date/timePositionNaut miles runAvg speedWind from/ knotsBaromVisibWave heightAir tempDewpointWater temp
2014-Oct-25 03:28N 48°31' W 122°36'0 0.0
2014-Oct-25 02:28N 48°31' W 122°36'0 0.0
2014-Oct-25 01:28N 48°31' W 122°36'0 0.0
2014-Oct-25 00:28N 48°31' W 122°36'0 0.0
2014-Oct-24 23:28N 48°31' W 122°36'0 0.0
2014-Oct-24 22:28N 48°31' W 122°36'0 0.0
2014-Oct-24 21:33N 48°31' W 122°36'0 0.0
2014-Oct-24 20:33N 48°31' W 122°36'0 0.1
2014-Oct-24 19:33N 48°31' W 122°36'0 0.0
2014-Oct-24 18:33N 48°31' W 122°36'0 0.2
2014-Oct-24 17:33N 48°31' W 122°37'0 0.2
2014-Oct-24 16:33N 48°31' W 122°36'0 0.0
2014-Oct-24 15:33N 48°31' W 122°36'0 0.3
2014-Oct-24 14:33N 48°31' W 122°37'0 0.3
2014-Oct-24 13:30N 48°31' W 122°36'0 0.0
2014-Oct-24 12:30N 48°31' W 122°36'0 0.0
2014-Oct-24 11:30N 48°31' W 122°36'0 0.0
2014-Oct-24 10:18N 48°31' W 122°36'0 0.0
2014-Oct-24 09:30N 48°31' W 122°36'0 0.0
2014-Oct-24 08:30N 48°31' W 122°36'0 0.0
2014-Oct-24 07:30N 48°31' W 122°36'0 0.0
2014-Oct-24 06:30N 48°31' W 122°36'0 0.0
2014-Oct-24 05:30N 48°31' W 122°36'0 0.0
2014-Oct-24 04:30N 48°31' W 122°36'0 0.0
2014-Oct-24 03:30N 48°31' W 122°36'0 0.0
2014-Oct-24 02:30N 48°31' W 122°36'0 0.0
2014-Oct-24 01:30N 48°31' W 122°36'0 0.0
2014-Oct-24 00:30N 48°31' W 122°36'0 0.1
2014-Oct-23 23:33N 48°31' W 122°36'9 8.8
2014-Oct-23 22:33N 48°33' W 122°49'1 1.2
2014-Oct-23 21:33N 48°32' W 122°49'8 8.3
2014-Oct-23 20:33N 48°31' W 122°36'4 3.7
2014-Oct-23 19:33N 48°33' W 122°41'0 0.0
2014-Oct-23 18:33N 48°33' W 122°41'3 3.4
2014-Oct-23 17:33N 48°31' W 122°37'0 0.0
2014-Oct-23 16:33N 48°31' W 122°37'0 0.4
2014-Oct-23 15:33N 48°31' W 122°36'0 0.0
2014-Oct-23 14:33N 48°31' W 122°36'0 0.0
2014-Oct-23 13:33N 48°31' W 122°36'0 0.0
2014-Oct-23 12:33N 48°31' W 122°36'0 0.0
2014-Oct-23 11:33N 48°31' W 122°36'0 0.0
2014-Oct-23 10:33N 48°31' W 122°36'0 0.0
2014-Oct-23 09:33N 48°31' W 122°36'0 0.0
2014-Oct-23 08:33N 48°31' W 122°36'0 0.0
2014-Oct-23 07:33N 48°31' W 122°36'0 0.0
2014-Oct-23 06:33N 48°31' W 122°36'0 0.0
2014-Oct-23 05:33N 48°31' W 122°36'0 0.0
2014-Oct-23 04:33N 48°31' W 122°36'0 0.0
2014-Oct-23 03:33N 48°31' W 122°36'0 0.0
2014-Oct-23 02:33N 48°31' W 122°36'0 0.0
2014-Oct-23 01:33N 48°31' W 122°36'0 0.0
2014-Oct-23 00:33N 48°31' W 122°36'0 0.0
2014-Oct-22 23:33N 48°31' W 122°36'0 0.0
2014-Oct-22 22:33N 48°31' W 122°36'0 0.0
2014-Oct-22 20:13N 48°31' W 122°36'0 0.0
2014-Oct-22 19:31N 48°31' W 122°36'0 0.0
2014-Oct-22 18:33N 48°31' W 122°36'0 0.0
2014-Oct-22 17:20N 48°31' W 122°36'0 0.0
2014-Oct-22 16:30N 48°31' W 122°36'0 0.0
2014-Oct-22 15:21N 48°31' W 122°36'0 0.0
2014-Oct-22 14:10N 48°31' W 122°36'0 0.0
2014-Oct-22 13:32N 48°31' W 122°36'0 0.0
2014-Oct-22 12:30N 48°31' W 122°36'0 0.0
2014-Oct-22 11:25N 48°31' W 122°36'0 0.0
2014-Oct-22 10:32N 48°31' W 122°36'0 0.0
2014-Oct-22 09:33N 48°31' W 122°36'0 0.0
2014-Oct-22 08:33N 48°31' W 122°36'0 0.0
2014-Oct-22 07:33N 48°31' W 122°36'0 0.0
2014-Oct-22 06:33N 48°31' W 122°36'0 0.0
2014-Oct-22 05:33N 48°31' W 122°36'0 0.0
2014-Oct-22 04:33N 48°31' W 122°36'0 0.0
2014-Oct-22 03:33N 48°31' W 122°36'0 0.0
2014-Oct-22 02:32N 48°31' W 122°36'0 0.0
2014-Oct-22 01:33N 48°31' W 122°36'0 0.0
2014-Oct-22 00:33N 48°31' W 122°36'0 0.0
2014-Oct-21 23:33N 48°31' W 122°36'0 0.0
2014-Oct-21 22:33N 48°31' W 122°36'0 0.0
2014-Oct-21 21:33N 48°31' W 122°36'5 5.5
2014-Oct-21 20:33N 48°31' W 122°45'7 7.3
2014-Oct-21 19:33N 48°34' W 122°55'4 3.9
2014-Oct-21 18:33N 48°32' W 123°00'0 0.0
2014-Oct-21 17:33N 48°32' W 123°00'6 5.6
2014-Oct-21 16:33N 48°34' W 122°53'8 8.4
2014-Oct-21 15:33N 48°32' W 122°40'3 2.6
2014-Oct-21 14:29N 48°31' W 122°36'0 0.0
2014-Oct-21 13:29N 48°31' W 122°36'0 0.0
2014-Oct-21 12:29N 48°31' W 122°36'0 0.0
2014-Oct-21 11:32N 48°31' W 122°36'0 0.0
2014-Oct-21 10:29N 48°31' W 122°36'0 0.0
2014-Oct-21 09:32N 48°31' W 122°36'0 0.0
2014-Oct-21 08:29N 48°31' W 122°36'0 0.0
2014-Oct-21 07:29N 48°31' W 122°36'0 0.0
2014-Oct-21 06:29N 48°31' W 122°36'0 0.0
2014-Oct-21 05:29N 48°31' W 122°36'0 0.0
2014-Oct-21 04:29N 48°31' W 122°36'0 0.0
2014-Oct-21 03:32N 48°31' W 122°36'0 0.0
2014-Oct-21 02:29N 48°31' W 122°36'0 0.0
2014-Oct-21 01:29N 48°31' W 122°36'0 0.0
2014-Oct-21 00:34N 48°31' W 122°36'7 7.4
2014-Oct-20 23:34N 48°34' W 122°46'2 1.9
2014-Oct-20 22:34N 48°35' W 122°49'0 0.0
2014-Oct-20 21:34N 48°35' W 122°49'5 5.2
2014-Oct-20 20:34N 48°32' W 122°43'4 4.2
2014-Oct-20 19:33N 48°31' W 122°36'1 0.9
2014-Oct-20 18:33N 48°31' W 122°38'1 0.6
2014-Oct-20 17:33N 48°31' W 122°37'0 0.2
2014-Oct-20 16:34N 48°31' W 122°37'0 0.2
2014-Oct-20 15:33N 48°31' W 122°36'0 0.0
2014-Oct-20 14:33N 48°31' W 122°36'0 0.0
2014-Oct-20 13:33N 48°31' W 122°36'0 0.0
2014-Oct-20 12:33N 48°31' W 122°36'0 0.0
2014-Oct-20 11:33N 48°31' W 122°36'0 0.0
2014-Oct-20 10:33N 48°31' W 122°36'0 0.0
2014-Oct-20 09:33N 48°31' W 122°36'0 0.0
2014-Oct-20 08:33N 48°31' W 122°36'0 0.0
2014-Oct-20 07:33N 48°31' W 122°36'0 0.0
2014-Oct-20 06:33N 48°31' W 122°36'0 0.0
2014-Oct-20 05:33N 48°31' W 122°36'0 0.0
2014-Oct-20 04:33N 48°31' W 122°36'0 0.0
2014-Oct-20 03:33N 48°31' W 122°36'0 0.0
2014-Oct-20 02:33N 48°31' W 122°36'0 0.0
2014-Oct-20 01:33N 48°31' W 122°36'0 0.0
2014-Oct-20 00:33N 48°31' W 122°36'0 0.0
2014-Oct-19 23:33N 48°31' W 122°36'0 0.0
2014-Oct-19 22:33N 48°31' W 122°36'0 0.0
2014-Oct-19 21:33N 48°31' W 122°36'0 0.0
2014-Oct-19 20:33N 48°31' W 122°36'0 0.0
2014-Oct-19 19:33N 48°31' W 122°36'0 0.0
2014-Oct-19 18:33N 48°31' W 122°36'0 0.0
2014-Oct-19 17:21N 48°31' W 122°36'0 0.0
2014-Oct-19 16:24N 48°31' W 122°36'0 0.0
2014-Oct-19 15:33N 48°31' W 122°36'0 0.0
2014-Oct-19 14:21N 48°31' W 122°36'0 0.0
2014-Oct-19 13:27N 48°31' W 122°36'0 0.0
2014-Oct-19 12:09N 48°31' W 122°36'0 0.0
2014-Oct-19 11:33N 48°31' W 122°36'0 0.0
2014-Oct-19 10:33N 48°31' W 122°36'0 0.0
2014-Oct-19 09:30N 48°31' W 122°36'0 0.0
2014-Oct-19 08:09N 48°31' W 122°36'0 0.0
2014-Oct-19 07:33N 48°31' W 122°36'0 0.0
2014-Oct-19 06:27N 48°31' W 122°36'0 0.0
2014-Oct-19 05:33N 48°31' W 122°36'0 0.0
2014-Oct-19 04:33N 48°31' W 122°36'0 0.0
2014-Oct-19 03:33N 48°31' W 122°36'0 0.0
2014-Oct-19 01:03N 48°31' W 122°36'0 0.0
2014-Oct-18 20:06N 48°31' W 122°36'0 0.0
2014-Oct-18 19:09N 48°31' W 122°36'0 0.0
2014-Oct-18 17:33N 48°31' W 122°36'0 0.0
2014-Oct-18 16:33N 48°31' W 122°36'0 0.0
2014-Oct-18 15:33N 48°31' W 122°36'0 0.0
2014-Oct-18 13:33N 48°31' W 122°36'0 0.0
2014-Oct-18 12:27N 48°31' W 122°36'0 0.0
2014-Oct-18 11:27N 48°31' W 122°36'0 0.0
2014-Oct-18 10:09N 48°31' W 122°36'0 0.0
2014-Oct-18 09:21N 48°31' W 122°36'0 0.0
2014-Oct-18 07:03N 48°31' W 122°36'0 0.0
2014-Oct-18 06:27N 48°31' W 122°36'0 0.0
2014-Oct-18 05:33N 48°31' W 122°36'0 0.0
2014-Oct-18 03:33N 48°31' W 122°36'0 0.0
2014-Oct-18 02:27N 48°31' W 122°36'0 0.0
2014-Oct-18 01:33N 48°31' W 122°36'0 0.0
2014-Oct-18 00:27N 48°31' W 122°36'0 0.0
2014-Oct-17 23:18N 48°31' W 122°36'1 1.2
2014-Oct-17 22:33N 48°31' W 122°38'0 0.0
2014-Oct-17 21:33N 48°31' W 122°38'1 0.6
2014-Oct-17 20:33N 48°31' W 122°38'3 2.3
2014-Oct-17 19:28N 48°33' W 122°41'0 0.0
2014-Oct-17 18:33N 48°33' W 122°41'3 3.4
2014-Oct-17 17:33N 48°31' W 122°37'0 0.0
2014-Oct-17 16:40N 48°31' W 122°37'0 0.4
2014-Oct-17 16:33N 48°31' W 122°37'0 0.2
2014-Oct-17 15:33N 48°31' W 122°37'0 0.1
2014-Oct-17 12:09N 48°31' W 122°36'0 0.0
2014-Oct-17 10:30N 48°31' W 122°36'0 0.0
2014-Oct-17 09:12N 48°31' W 122°36'0 0.0
2014-Oct-17 08:15N 48°31' W 122°36'0 0.0
2014-Oct-17 07:24N 48°31' W 122°36'0 0.0
2014-Oct-17 06:27N 48°31' W 122°36'0 0.0
2014-Oct-17 05:33N 48°31' W 122°36'0 0.0
2014-Oct-17 04:18N 48°31' W 122°36'0 0.0
2014-Oct-17 04:12N 48°31' W 122°36'0 0.0
2014-Oct-17 03:24N 48°31' W 122°36'0 0.0
2014-Oct-17 02:18N 48°31' W 122°36'0 0.0
2014-Oct-16 23:06N 48°31' W 122°36'1 0.9
2014-Oct-16 22:23N 48°31' W 122°36'1 0.9
2014-Oct-16 21:43N 48°31' W 122°36'1 3.2
2014-Oct-16 21:33N 48°31' W 122°36'8 7.7
2014-Oct-16 20:32N 48°39' W 122°35'0 0.0
2014-Oct-16 19:30N 48°39' W 122°35'1 0.5
2014-Oct-16 18:21N 48°40' W 122°36'4 4.7
2014-Oct-16 17:34N 48°36' W 122°35'0 9.4
2014-Oct-16 17:33N 48°36' W 122°35'5 4.6
2014-Oct-16 16:33N 48°31' W 122°36'0 0.0
2014-Oct-16 15:31N 48°31' W 122°36'0 0.0
2014-Oct-16 13:11N 48°31' W 122°36'0 0.0
2014-Oct-16 10:32N 48°31' W 122°36'0 0.0
2014-Oct-16 09:32N 48°31' W 122°36'0 0.0
2014-Oct-16 08:29N 48°31' W 122°36'0 0.0
2014-Oct-16 07:32N 48°31' W 122°36'0 0.0
2014-Oct-16 06:32N 48°31' W 122°36'0 0.0
2014-Oct-16 05:26N 48°31' W 122°36'0 0.0
2014-Oct-16 04:32N 48°31' W 122°36'0 0.0
2014-Oct-16 03:32N 48°31' W 122°36'0 0.0
2014-Oct-16 02:32N 48°31' W 122°36'0 0.0
2014-Oct-16 01:14N 48°31' W 122°36'0 0.0
2014-Oct-16 00:26N 48°31' W 122°36'0 0.0
2014-Oct-15 23:33N 48°31' W 122°36'1 0.8
2014-Oct-15 22:29N 48°32' W 122°38'1 0.4
2014-Oct-15 21:15N 48°31' W 122°37'3 5.0
2014-Oct-15 20:33N 48°29' W 122°41'9 4.0
2014-Oct-15 18:11N 48°22' W 122°33'4 6.0
2014-Oct-15 17:33N 48°25' W 122°30'7 7.3
2014-Oct-15 16:33N 48°31' W 122°36'0 0.0
2014-Oct-15 15:19N 48°31' W 122°36'0 0.0
2014-Oct-15 14:28N 48°31' W 122°36'0 0.0
2014-Oct-15 13:31N 48°31' W 122°36'0 0.0
2014-Oct-15 12:31N 48°31' W 122°36'0 0.0
2014-Oct-15 11:25N 48°31' W 122°36'0 0.0
2014-Oct-15 10:22N 48°31' W 122°36'0 0.0
2014-Oct-15 09:31N 48°31' W 122°36'0 0.0
2014-Oct-15 08:31N 48°31' W 122°36'0 0.0
2014-Oct-15 07:22N 48°31' W 122°36'0 0.0
2014-Oct-15 06:31N 48°31' W 122°36'0 0.0
2014-Oct-15 05:31N 48°31' W 122°36'0 0.0
2014-Oct-15 04:31N 48°31' W 122°36'  
Track history (hours):
 
Tides and Currents Weather Stations Pressure Air Temp Water Temp Dewpoint Dewpoint Depression Visibility Wind Speed Wind Dir Waves Ship Positions

San Juan Enterprise

Owner: SAN JUAN MARINE FREIGHT CO LLC, ANACORTES, WA. More information available from US FCC via Universal Licensing System and Coast Guard Vessel Documentation Center.

Last reported at 2014-Oct-25 03:28 UTC. Time now 2014-Oct-25 04:18 UTC.
Position N 48°31' W 122°36'.

Length 30 m.

MMSI: 367313160.

Date/timePositionNaut miles runAvg speedWind from/ knotsBaromVisibWave heightAir tempDewpointWater temp
2014-Oct-25 03:28N 48°31' W 122°36'0 0.0
2014-Oct-25 02:28N 48°31' W 122°36'0 0.0
2014-Oct-25 01:28N 48°31' W 122°36'0 0.0
2014-Oct-25 00:28N 48°31' W 122°36'0 0.0
2014-Oct-24 23:28N 48°31' W 122°36'0 0.0
2014-Oct-24 22:28N 48°31' W 122°36'0 0.0
2014-Oct-24 21:33N 48°31' W 122°36'0 0.0
2014-Oct-24 20:33N 48°31' W 122°36'0 0.1
2014-Oct-24 19:33N 48°31' W 122°36'0 0.0
2014-Oct-24 18:33N 48°31' W 122°36'0 0.2
2014-Oct-24 17:33N 48°31' W 122°37'0 0.2
2014-Oct-24 16:33N 48°31' W 122°36'0 0.0
2014-Oct-24 15:33N 48°31' W 122°36'0 0.3
2014-Oct-24 14:33N 48°31' W 122°37'0 0.3
2014-Oct-24 13:30N 48°31' W 122°36'0 0.0
2014-Oct-24 12:30N 48°31' W 122°36'0 0.0
2014-Oct-24 11:30N 48°31' W 122°36'0 0.0
2014-Oct-24 10:18N 48°31' W 122°36'0 0.0
2014-Oct-24 09:30N 48°31' W 122°36'0 0.0
2014-Oct-24 08:30N 48°31' W 122°36'0 0.0
2014-Oct-24 07:30N 48°31' W 122°36'0 0.0
2014-Oct-24 06:30N 48°31' W 122°36'0 0.0
2014-Oct-24 05:30N 48°31' W 122°36'0 0.0
2014-Oct-24 04:30N 48°31' W 122°36'0 0.0
2014-Oct-24 03:30N 48°31' W 122°36'0 0.0
2014-Oct-24 02:30N 48°31' W 122°36'0 0.0
2014-Oct-24 01:30N 48°31' W 122°36'0 0.0
2014-Oct-24 00:30N 48°31' W 122°36'0 0.1
2014-Oct-23 23:33N 48°31' W 122°36'9 8.8
2014-Oct-23 22:33N 48°33' W 122°49'1 1.2
2014-Oct-23 21:33N 48°32' W 122°49'8 8.3
2014-Oct-23 20:33N 48°31' W 122°36'4 3.7
2014-Oct-23 19:33N 48°33' W 122°41'0 0.0
2014-Oct-23 18:33N 48°33' W 122°41'3 3.4
2014-Oct-23 17:33N 48°31' W 122°37'0 0.0
2014-Oct-23 16:33N 48°31' W 122°37'0 0.4
2014-Oct-23 15:33N 48°31' W 122°36'0 0.0
2014-Oct-23 14:33N 48°31' W 122°36'0 0.0
2014-Oct-23 13:33N 48°31' W 122°36'0 0.0
2014-Oct-23 12:33N 48°31' W 122°36'0 0.0
2014-Oct-23 11:33N 48°31' W 122°36'0 0.0
2014-Oct-23 10:33N 48°31' W 122°36'0 0.0
2014-Oct-23 09:33N 48°31' W 122°36'0 0.0
2014-Oct-23 08:33N 48°31' W 122°36'0 0.0
2014-Oct-23 07:33N 48°31' W 122°36'0 0.0
2014-Oct-23 06:33N 48°31' W 122°36'0 0.0
2014-Oct-23 05:33N 48°31' W 122°36'0 0.0
2014-Oct-23 04:33N 48°31' W 122°36'0 0.0
2014-Oct-23 03:33N 48°31' W 122°36'0 0.0
2014-Oct-23 02:33N 48°31' W 122°36'0 0.0
2014-Oct-23 01:33N 48°31' W 122°36'0 0.0
2014-Oct-23 00:33N 48°31' W 122°36'0 0.0
2014-Oct-22 23:33N 48°31' W 122°36'0 0.0
2014-Oct-22 22:33N 48°31' W 122°36'0 0.0
2014-Oct-22 20:13N 48°31' W 122°36'0 0.0
2014-Oct-22 19:31N 48°31' W 122°36'0 0.0
2014-Oct-22 18:33N 48°31' W 122°36'0 0.0
2014-Oct-22 17:20N 48°31' W 122°36'0 0.0
2014-Oct-22 16:30N 48°31' W 122°36'0 0.0
2014-Oct-22 15:21N 48°31' W 122°36'0 0.0
2014-Oct-22 14:10N 48°31' W 122°36'0 0.0
2014-Oct-22 13:32N 48°31' W 122°36'0 0.0
2014-Oct-22 12:30N 48°31' W 122°36'0 0.0
2014-Oct-22 11:25N 48°31' W 122°36'0 0.0
2014-Oct-22 10:32N 48°31' W 122°36'0 0.0
2014-Oct-22 09:33N 48°31' W 122°36'0 0.0
2014-Oct-22 08:33N 48°31' W 122°36'0 0.0
2014-Oct-22 07:33N 48°31' W 122°36'0 0.0
2014-Oct-22 06:33N 48°31' W 122°36'0 0.0
2014-Oct-22 05:33N 48°31' W 122°36'0 0.0
2014-Oct-22 04:33N 48°31' W 122°36'0 0.0
2014-Oct-22 03:33N 48°31' W 122°36'0 0.0
2014-Oct-22 02:32N 48°31' W 122°36'0 0.0
2014-Oct-22 01:33N 48°31' W 122°36'0 0.0
2014-Oct-22 00:33N 48°31' W 122°36'0 0.0
2014-Oct-21 23:33N 48°31' W 122°36'0 0.0
2014-Oct-21 22:33N 48°31' W 122°36'0 0.0
2014-Oct-21 21:33N 48°31' W 122°36'5 5.5
2014-Oct-21 20:33N 48°31' W 122°45'7 7.3
2014-Oct-21 19:33N 48°34' W 122°55'4 3.9
2014-Oct-21 18:33N 48°32' W 123°00'0 0.0
2014-Oct-21 17:33N 48°32' W 123°00'6 5.6
2014-Oct-21 16:33N 48°34' W 122°53'8 8.4
2014-Oct-21 15:33N 48°32' W 122°40'3 2.6
2014-Oct-21 14:29N 48°31' W 122°36'0 0.0
2014-Oct-21 13:29N 48°31' W 122°36'0 0.0
2014-Oct-21 12:29N 48°31' W 122°36'0 0.0
2014-Oct-21 11:32N 48°31' W 122°36'0 0.0
2014-Oct-21 10:29N 48°31' W 122°36'0 0.0
2014-Oct-21 09:32N 48°31' W 122°36'0 0.0
2014-Oct-21 08:29N 48°31' W 122°36'0 0.0
2014-Oct-21 07:29N 48°31' W 122°36'0 0.0
2014-Oct-21 06:29N 48°31' W 122°36'0 0.0
2014-Oct-21 05:29N 48°31' W 122°36'0 0.0
2014-Oct-21 04:29N 48°31' W 122°36'0 0.0
2014-Oct-21 03:32N 48°31' W 122°36'0 0.0
2014-Oct-21 02:29N 48°31' W 122°36'0 0.0
2014-Oct-21 01:29N 48°31' W 122°36'0 0.0
2014-Oct-21 00:34N 48°31' W 122°36'7 7.4
2014-Oct-20 23:34N 48°34' W 122°46'2 1.9
2014-Oct-20 22:34N 48°35' W 122°49'0 0.0
2014-Oct-20 21:34N 48°35' W 122°49'5 5.2
2014-Oct-20 20:34N 48°32' W 122°43'4 4.2
2014-Oct-20 19:33N 48°31' W 122°36'1 0.9
2014-Oct-20 18:33N 48°31' W 122°38'1 0.6
2014-Oct-20 17:33N 48°31' W 122°37'0 0.2
2014-Oct-20 16:34N 48°31' W 122°37'0 0.2
2014-Oct-20 15:33N 48°31' W 122°36'0 0.0
2014-Oct-20 14:33N 48°31' W 122°36'0 0.0
2014-Oct-20 13:33N 48°31' W 122°36'0 0.0
2014-Oct-20 12:33N 48°31' W 122°36'0 0.0
2014-Oct-20 11:33N 48°31' W 122°36'0 0.0
2014-Oct-20 10:33N 48°31' W 122°36'0 0.0
2014-Oct-20 09:33N 48°31' W 122°36'0 0.0
2014-Oct-20 08:33N 48°31' W 122°36'0 0.0
2014-Oct-20 07:33N 48°31' W 122°36'0 0.0
2014-Oct-20 06:33N 48°31' W 122°36'0 0.0
2014-Oct-20 05:33N 48°31' W 122°36'0 0.0
2014-Oct-20 04:33N 48°31' W 122°36'0 0.0
2014-Oct-20 03:33N 48°31' W 122°36'0 0.0
2014-Oct-20 02:33N 48°31' W 122°36'0 0.0
2014-Oct-20 01:33N 48°31' W 122°36'0 0.0
2014-Oct-20 00:33N 48°31' W 122°36'0 0.0
2014-Oct-19 23:33N 48°31' W 122°36'0 0.0
2014-Oct-19 22:33N 48°31' W 122°36'0 0.0
2014-Oct-19 21:33N 48°31' W 122°36'0 0.0
2014-Oct-19 20:33N 48°31' W 122°36'0 0.0
2014-Oct-19 19:33N 48°31' W 122°36'0 0.0
2014-Oct-19 18:33N 48°31' W 122°36'0 0.0
2014-Oct-19 17:21N 48°31' W 122°36'0 0.0
2014-Oct-19 16:24N 48°31' W 122°36'0 0.0
2014-Oct-19 15:33N 48°31' W 122°36'0 0.0
2014-Oct-19 14:21N 48°31' W 122°36'0 0.0
2014-Oct-19 13:27N 48°31' W 122°36'0 0.0
2014-Oct-19 12:09N 48°31' W 122°36'0 0.0
2014-Oct-19 11:33N 48°31' W 122°36'0 0.0
2014-Oct-19 10:33N 48°31' W 122°36'0 0.0
2014-Oct-19 09:30N 48°31' W 122°36'0 0.0
2014-Oct-19 08:09N 48°31' W 122°36'0 0.0
2014-Oct-19 07:33N 48°31' W 122°36'0 0.0
2014-Oct-19 06:27N 48°31' W 122°36'0 0.0
2014-Oct-19 05:33N 48°31' W 122°36'0 0.0
2014-Oct-19 04:33N 48°31' W 122°36'0 0.0
2014-Oct-19 03:33N 48°31' W 122°36'0 0.0
2014-Oct-19 01:03N 48°31' W 122°36'0 0.0
2014-Oct-18 20:06N 48°31' W 122°36'0 0.0
2014-Oct-18 19:09N 48°31' W 122°36'0 0.0
2014-Oct-18 17:33N 48°31' W 122°36'0 0.0
2014-Oct-18 16:33N 48°31' W 122°36'0 0.0
2014-Oct-18 15:33N 48°31' W 122°36'0 0.0
2014-Oct-18 13:33N 48°31' W 122°36'0 0.0
2014-Oct-18 12:27N 48°31' W 122°36'0 0.0
2014-Oct-18 11:27N 48°31' W 122°36'0 0.0
2014-Oct-18 10:09N 48°31' W 122°36'0 0.0
2014-Oct-18 09:21N 48°31' W 122°36'0 0.0
2014-Oct-18 07:03N 48°31' W 122°36'0 0.0
2014-Oct-18 06:27N 48°31' W 122°36'0 0.0
2014-Oct-18 05:33N 48°31' W 122°36'0 0.0
2014-Oct-18 03:33N 48°31' W 122°36'0 0.0
2014-Oct-18 02:27N 48°31' W 122°36'0 0.0
2014-Oct-18 01:33N 48°31' W 122°36'0 0.0
2014-Oct-18 00:27N 48°31' W 122°36'0 0.0
2014-Oct-17 23:18N 48°31' W 122°36'1 1.2
2014-Oct-17 22:33N 48°31' W 122°38'0 0.0
2014-Oct-17 21:33N 48°31' W 122°38'1 0.6
2014-Oct-17 20:33N 48°31' W 122°38'3 2.3
2014-Oct-17 19:28N 48°33' W 122°41'0 0.0
2014-Oct-17 18:33N 48°33' W 122°41'3 3.4
2014-Oct-17 17:33N 48°31' W 122°37'0 0.0
2014-Oct-17 16:40N 48°31' W 122°37'0 0.4
2014-Oct-17 16:33N 48°31' W 122°37'0 0.2
2014-Oct-17 15:33N 48°31' W 122°37'0 0.1
2014-Oct-17 12:09N 48°31' W 122°36'0 0.0
2014-Oct-17 10:30N 48°31' W 122°36'0 0.0
2014-Oct-17 09:12N 48°31' W 122°36'0 0.0
2014-Oct-17 08:15N 48°31' W 122°36'0 0.0
2014-Oct-17 07:24N 48°31' W 122°36'0 0.0
2014-Oct-17 06:27N 48°31' W 122°36'0 0.0
2014-Oct-17 05:33N 48°31' W 122°36'0 0.0
2014-Oct-17 04:18N 48°31' W 122°36'0 0.0
2014-Oct-17 04:12N 48°31' W 122°36'0 0.0
2014-Oct-17 03:24N 48°31' W 122°36'0 0.0
2014-Oct-17 02:18N 48°31' W 122°36'0 0.0
2014-Oct-16 23:06N 48°31' W 122°36'1 0.9
2014-Oct-16 22:23N 48°31' W 122°36'1 0.9
2014-Oct-16 21:43N 48°31' W 122°36'1 3.2
2014-Oct-16 21:33N 48°31' W 122°36'8 7.7
2014-Oct-16 20:32N 48°39' W 122°35'0 0.0
2014-Oct-16 19:30N 48°39' W 122°35'1 0.5
2014-Oct-16 18:21N 48°40' W 122°36'4 4.7
2014-Oct-16 17:34N 48°36' W 122°35'0 9.4
2014-Oct-16 17:33N 48°36' W 122°35'5 4.6
2014-Oct-16 16:33N 48°31' W 122°36'0 0.0
2014-Oct-16 15:31N 48°31' W 122°36'0 0.0
2014-Oct-16 13:11N 48°31' W 122°36'0 0.0
2014-Oct-16 10:32N 48°31' W 122°36'0 0.0
2014-Oct-16 09:32N 48°31' W 122°36'0 0.0
2014-Oct-16 08:29N 48°31' W 122°36'0 0.0
2014-Oct-16 07:32N 48°31' W 122°36'0 0.0
2014-Oct-16 06:32N 48°31' W 122°36'0 0.0
2014-Oct-16 05:26N 48°31' W 122°36'0 0.0
2014-Oct-16 04:32N 48°31' W 122°36'0 0.0
2014-Oct-16 03:32N 48°31' W 122°36'0 0.0
2014-Oct-16 02:32N 48°31' W 122°36'0 0.0
2014-Oct-16 01:14N 48°31' W 122°36'0 0.0
2014-Oct-16 00:26N 48°31' W 122°36'0 0.0
2014-Oct-15 23:33N 48°31' W 122°36'1 0.8
2014-Oct-15 22:29N 48°32' W 122°38'1 0.4
2014-Oct-15 21:15N 48°31' W 122°37'3 5.0
2014-Oct-15 20:33N 48°29' W 122°41'9 4.0
2014-Oct-15 18:11N 48°22' W 122°33'4 6.0
2014-Oct-15 17:33N 48°25' W 122°30'7 7.3
2014-Oct-15 16:33N 48°31' W 122°36'0 0.0
2014-Oct-15 15:19N 48°31' W 122°36'0 0.0
2014-Oct-15 14:28N 48°31' W 122°36'0 0.0
2014-Oct-15 13:31N 48°31' W 122°36'0 0.0
2014-Oct-15 12:31N 48°31' W 122°36'0 0.0
2014-Oct-15 11:25N 48°31' W 122°36'0 0.0
2014-Oct-15 10:22N 48°31' W 122°36'0 0.0
2014-Oct-15 09:31N 48°31' W 122°36'0 0.0
2014-Oct-15 08:31N 48°31' W 122°36'0 0.0
2014-Oct-15 07:22N 48°31' W 122°36'0 0.0
2014-Oct-15 06:31N 48°31' W 122°36'0 0.0
2014-Oct-15 05:31N 48°31' W 122°36'0 0.0
2014-Oct-15 04:31N 48°31' W 122°36'  

Dump ship's entire track history